sensor_id;sensor_type;location;lat;lon;timestamp;P1;durP1;ratioP1;P2;durP2;ratioP2
67819;SDS011;54618;52.018;5.576;2023-03-01T00:01:06;4.30;;;2.60;;
67819;SDS011;54618;52.018;5.576;2023-03-01T00:03:34;6.65;;;2.67;;
67819;SDS011;54618;52.018;5.576;2023-03-01T00:06:00;3.92;;;2.50;;
67819;SDS011;54618;52.018;5.576;2023-03-01T00:08:26;4.75;;;2.30;;
67819;SDS011;54618;52.018;5.576;2023-03-01T00:13:49;4.57;;;2.50;;
67819;SDS011;54618;52.018;5.576;2023-03-01T00:16:18;4.22;;;2.35;;
67819;SDS011;54618;52.018;5.576;2023-03-01T00:18:47;4.45;;;2.60;;
67819;SDS011;54618;52.018;5.576;2023-03-01T00:21:13;4.97;;;2.50;;
67819;SDS011;54618;52.018;5.576;2023-03-01T00:23:39;3.53;;;2.38;;
67819;SDS011;54618;52.018;5.576;2023-03-01T00:26:05;5.25;;;2.28;;
67819;SDS011;54618;52.018;5.576;2023-03-01T00:28:32;4.05;;;2.65;;
67819;SDS011;54618;52.018;5.576;2023-03-01T00:31:05;4.32;;;2.35;;
67819;SDS011;54618;52.018;5.576;2023-03-01T00:33:35;4.30;;;2.60;;
67819;SDS011;54618;52.018;5.576;2023-03-01T00:36:01;4.57;;;2.30;;
67819;SDS011;54618;52.018;5.576;2023-03-01T00:38:28;4.45;;;2.53;;
67819;SDS011;54618;52.018;5.576;2023-03-01T00:40:54;5.22;;;2.55;;
67819;SDS011;54618;52.018;5.576;2023-03-01T00:43:20;4.15;;;2.55;;
67819;SDS011;54618;52.018;5.576;2023-03-01T00:45:45;4.65;;;2.40;;
67819;SDS011;54618;52.018;5.576;2023-03-01T00:48:11;4.13;;;2.20;;
67819;SDS011;54618;52.018;5.576;2023-03-01T00:50:36;4.50;;;2.50;;
67819;SDS011;54618;52.018;5.576;2023-03-01T00:53:02;4.53;;;2.63;;
67819;SDS011;54618;52.018;5.576;2023-03-01T00:55:29;4.78;;;2.60;;
67819;SDS011;54618;52.018;5.576;2023-03-01T00:57:55;4.10;;;2.30;;
67819;SDS011;54618;52.018;5.576;2023-03-01T01:00:21;4.55;;;2.50;;
67819;SDS011;54618;52.018;5.576;2023-03-01T01:02:47;4.65;;;2.50;;
67819;SDS011;54618;52.018;5.576;2023-03-01T01:05:12;4.18;;;2.50;;
67819;SDS011;54618;52.018;5.576;2023-03-01T01:07:38;4.57;;;2.70;;
67819;SDS011;54618;52.018;5.576;2023-03-01T01:10:04;4.55;;;2.60;;
67819;SDS011;54618;52.018;5.576;2023-03-01T01:12:30;3.95;;;2.20;;
67819;SDS011;54618;52.018;5.576;2023-03-01T01:14:57;4.85;;;2.60;;
67819;SDS011;54618;52.018;5.576;2023-03-01T01:17:23;4.65;;;2.63;;
67819;SDS011;54618;52.018;5.576;2023-03-01T01:19:48;4.32;;;2.55;;
67819;SDS011;54618;52.018;5.576;2023-03-01T01:22:14;4.72;;;2.58;;
67819;SDS011;54618;52.018;5.576;2023-03-01T01:24:39;4.40;;;2.40;;
67819;SDS011;54618;52.018;5.576;2023-03-01T01:27:05;4.05;;;2.30;;
67819;SDS011;54618;52.018;5.576;2023-03-01T01:29:32;4.18;;;2.60;;
67819;SDS011;54618;52.018;5.576;2023-03-01T01:31:58;3.92;;;2.53;;
67819;SDS011;54618;52.018;5.576;2023-03-01T01:34:24;5.72;;;2.88;;
67819;SDS011;54618;52.018;5.576;2023-03-01T01:36:50;5.68;;;2.63;;
67819;SDS011;54618;52.018;5.576;2023-03-01T01:39:18;3.90;;;2.60;;
67819;SDS011;54618;52.018;5.576;2023-03-01T01:41:44;4.93;;;2.70;;
67819;SDS011;54618;52.018;5.576;2023-03-01T01:46:54;4.60;;;2.63;;
67819;SDS011;54618;52.018;5.576;2023-03-01T01:52:11;4.43;;;2.45;;
67819;SDS011;54618;52.018;5.576;2023-03-01T01:54:44;4.43;;;2.40;;
67819;SDS011;54618;52.018;5.576;2023-03-01T01:57:16;4.78;;;2.55;;
67819;SDS011;54618;52.018;5.576;2023-03-01T01:59:47;5.55;;;2.65;;
67819;SDS011;54618;52.018;5.576;2023-03-01T02:02:17;3.97;;;2.55;;
67819;SDS011;54618;52.018;5.576;2023-03-01T02:04:43;4.55;;;2.67;;
67819;SDS011;54618;52.018;5.576;2023-03-01T02:07:13;3.97;;;2.28;;
67819;SDS011;54618;52.018;5.576;2023-03-01T02:09:42;3.22;;;2.13;;
67819;SDS011;54618;52.018;5.576;2023-03-01T02:14:38;4.97;;;2.83;;
67819;SDS011;54618;52.018;5.576;2023-03-01T02:17:03;6.07;;;2.47;;
67819;SDS011;54618;52.018;5.576;2023-03-01T02:19:55;3.90;;;2.40;;
67819;SDS011;54618;52.018;5.576;2023-03-01T02:22:31;5.05;;;2.60;;
67819;SDS011;54618;52.018;5.576;2023-03-01T02:30:30;3.95;;;2.40;;
67819;SDS011;54618;52.018;5.576;2023-03-01T02:32:57;4.28;;;2.50;;
67819;SDS011;54618;52.018;5.576;2023-03-01T02:35:28;4.45;;;2.60;;
67819;SDS011;54618;52.018;5.576;2023-03-01T02:37:57;3.47;;;2.40;;
67819;SDS011;54618;52.018;5.576;2023-03-01T02:40:25;4.18;;;2.58;;
67819;SDS011;54618;52.018;5.576;2023-03-01T02:42:55;4.38;;;2.55;;
67819;SDS011;54618;52.018;5.576;2023-03-01T02:45:22;4.25;;;2.50;;
67819;SDS011;54618;52.018;5.576;2023-03-01T02:47:48;4.50;;;2.47;;
67819;SDS011;54618;52.018;5.576;2023-03-01T02:50:23;4.07;;;2.28;;
67819;SDS011;54618;52.018;5.576;2023-03-01T02:55:36;3.78;;;2.38;;
67819;SDS011;54618;52.018;5.576;2023-03-01T02:58:02;3.65;;;2.50;;
67819;SDS011;54618;52.018;5.576;2023-03-01T03:00:38;4.57;;;2.45;;
67819;SDS011;54618;52.018;5.576;2023-03-01T03:03:10;3.83;;;2.40;;
67819;SDS011;54618;52.018;5.576;2023-03-01T03:05:39;3.97;;;2.45;;
67819;SDS011;54618;52.018;5.576;2023-03-01T03:08:04;3.60;;;2.05;;
67819;SDS011;54618;52.018;5.576;2023-03-01T03:10:33;3.88;;;2.17;;
67819;SDS011;54618;52.018;5.576;2023-03-01T03:13:02;3.60;;;2.03;;
67819;SDS011;54618;52.018;5.576;2023-03-01T03:15:31;3.92;;;2.15;;
67819;SDS011;54618;52.018;5.576;2023-03-01T03:18:01;2.95;;;1.88;;
67819;SDS011;54618;52.018;5.576;2023-03-01T03:20:31;3.40;;;2.13;;
67819;SDS011;54618;52.018;5.576;2023-03-01T03:22:58;2.67;;;1.88;;
67819;SDS011;54618;52.018;5.576;2023-03-01T03:25:25;4.35;;;2.15;;
67819;SDS011;54618;52.018;5.576;2023-03-01T03:27:52;3.25;;;2.13;;
67819;SDS011;54618;52.018;5.576;2023-03-01T03:30:21;3.38;;;2.08;;
67819;SDS011;54618;52.018;5.576;2023-03-01T03:32:49;3.63;;;2.20;;
67819;SDS011;54618;52.018;5.576;2023-03-01T03:35:18;3.40;;;2.05;;
67819;SDS011;54618;52.018;5.576;2023-03-01T03:37:47;2.40;;;1.80;;
67819;SDS011;54618;52.018;5.576;2023-03-01T03:40:40;2.58;;;1.70;;
67819;SDS011;54618;52.018;5.576;2023-03-01T03:43:11;3.00;;;1.88;;
67819;SDS011;54618;52.018;5.576;2023-03-01T03:45:41;3.53;;;1.98;;
67819;SDS011;54618;52.018;5.576;2023-03-01T03:48:08;3.28;;;1.90;;
67819;SDS011;54618;52.018;5.576;2023-03-01T03:50:35;2.65;;;1.88;;
67819;SDS011;54618;52.018;5.576;2023-03-01T03:53:02;3.63;;;1.98;;
67819;SDS011;54618;52.018;5.576;2023-03-01T03:55:30;3.75;;;2.00;;
67819;SDS011;54618;52.018;5.576;2023-03-01T03:57:58;2.65;;;1.83;;
67819;SDS011;54618;52.018;5.576;2023-03-01T04:00:27;2.88;;;1.75;;
67819;SDS011;54618;52.018;5.576;2023-03-01T04:02:53;3.17;;;2.03;;
67819;SDS011;54618;52.018;5.576;2023-03-01T04:05:21;2.92;;;1.85;;
67819;SDS011;54618;52.018;5.576;2023-03-01T04:07:47;3.35;;;1.90;;
67819;SDS011;54618;52.018;5.576;2023-03-01T04:10:14;3.40;;;2.20;;
67819;SDS011;54618;52.018;5.576;2023-03-01T04:12:42;3.22;;;1.80;;
67819;SDS011;54618;52.018;5.576;2023-03-01T04:15:09;3.08;;;1.92;;
67819;SDS011;54618;52.018;5.576;2023-03-01T04:17:39;3.15;;;1.80;;
67819;SDS011;54618;52.018;5.576;2023-03-01T04:20:06;3.25;;;1.90;;
67819;SDS011;54618;52.018;5.576;2023-03-01T04:22:36;3.63;;;2.10;;
67819;SDS011;54618;52.018;5.576;2023-03-01T04:25:02;3.45;;;1.80;;
67819;SDS011;54618;52.018;5.576;2023-03-01T04:27:30;3.03;;;1.80;;
67819;SDS011;54618;52.018;5.576;2023-03-01T04:29:55;3.05;;;1.70;;
67819;SDS011;54618;52.018;5.576;2023-03-01T04:32:21;3.17;;;1.92;;
67819;SDS011;54618;52.018;5.576;2023-03-01T04:34:46;3.78;;;2.03;;
67819;SDS011;54618;52.018;5.576;2023-03-01T04:37:12;3.40;;;1.90;;
67819;SDS011;54618;52.018;5.576;2023-03-01T04:39:37;2.97;;;1.80;;
67819;SDS011;54618;52.018;5.576;2023-03-01T04:42:10;3.25;;;1.95;;
67819;SDS011;54618;52.018;5.576;2023-03-01T04:44:36;3.05;;;1.83;;
67819;SDS011;54618;52.018;5.576;2023-03-01T04:47:02;2.92;;;1.65;;
67819;SDS011;54618;52.018;5.576;2023-03-01T04:49:28;2.72;;;1.88;;
67819;SDS011;54618;52.018;5.576;2023-03-01T04:51:54;3.42;;;1.92;;
67819;SDS011;54618;52.018;5.576;2023-03-01T04:54:23;2.88;;;1.60;;
67819;SDS011;54618;52.018;5.576;2023-03-01T04:56:48;3.72;;;1.98;;
67819;SDS011;54618;52.018;5.576;2023-03-01T04:59:14;3.30;;;1.90;;
67819;SDS011;54618;52.018;5.576;2023-03-01T05:01:39;3.47;;;1.70;;
67819;SDS011;54618;52.018;5.576;2023-03-01T05:04:07;2.78;;;1.67;;
67819;SDS011;54618;52.018;5.576;2023-03-01T05:06:38;3.13;;;1.60;;
67819;SDS011;54618;52.018;5.576;2023-03-01T05:09:04;2.78;;;1.70;;
67819;SDS011;54618;52.018;5.576;2023-03-01T05:11:30;3.17;;;1.83;;
67819;SDS011;54618;52.018;5.576;2023-03-01T05:14:00;3.17;;;1.90;;
67819;SDS011;54618;52.018;5.576;2023-03-01T05:16:30;2.78;;;1.48;;
67819;SDS011;54618;52.018;5.576;2023-03-01T05:18:57;3.20;;;1.75;;
67819;SDS011;54618;52.018;5.576;2023-03-01T05:21:23;2.88;;;1.60;;
67819;SDS011;54618;52.018;5.576;2023-03-01T05:23:48;2.92;;;1.65;;
67819;SDS011;54618;52.018;5.576;2023-03-01T05:26:15;2.90;;;1.80;;
67819;SDS011;54618;52.018;5.576;2023-03-01T05:28:42;2.67;;;1.83;;
67819;SDS011;54618;52.018;5.576;2023-03-01T05:31:08;2.78;;;1.70;;
67819;SDS011;54618;52.018;5.576;2023-03-01T05:33:38;2.85;;;1.67;;
67819;SDS011;54618;52.018;5.576;2023-03-01T05:36:05;2.83;;;1.80;;
67819;SDS011;54618;52.018;5.576;2023-03-01T05:38:32;3.00;;;1.60;;
67819;SDS011;54618;52.018;5.576;2023-03-01T05:40:57;3.10;;;1.70;;
67819;SDS011;54618;52.018;5.576;2023-03-01T05:43:23;3.00;;;1.80;;
67819;SDS011;54618;52.018;5.576;2023-03-01T05:45:48;2.97;;;1.60;;
67819;SDS011;54618;52.018;5.576;2023-03-01T05:48:14;2.70;;;1.63;;
67819;SDS011;54618;52.018;5.576;2023-03-01T05:50:41;3.45;;;1.85;;
67819;SDS011;54618;52.018;5.576;2023-03-01T05:55:42;2.65;;;1.77;;
67819;SDS011;54618;52.018;5.576;2023-03-01T05:58:27;2.88;;;1.70;;
67819;SDS011;54618;52.018;5.576;2023-03-01T06:00:52;3.15;;;1.83;;
67819;SDS011;54618;52.018;5.576;2023-03-01T06:03:18;3.53;;;1.83;;
67819;SDS011;54618;52.018;5.576;2023-03-01T06:05:44;2.72;;;1.60;;
67819;SDS011;54618;52.018;5.576;2023-03-01T06:08:10;2.92;;;1.70;;
67819;SDS011;54618;52.018;5.576;2023-03-01T06:10:36;2.55;;;1.65;;
67819;SDS011;54618;52.018;5.576;2023-03-01T06:13:02;3.47;;;1.90;;
67819;SDS011;54618;52.018;5.576;2023-03-01T06:15:28;2.92;;;2.00;;
67819;SDS011;54618;52.018;5.576;2023-03-01T06:17:54;3.65;;;1.90;;
67819;SDS011;54618;52.018;5.576;2023-03-01T06:20:24;3.00;;;1.75;;
67819;SDS011;54618;52.018;5.576;2023-03-01T06:22:51;3.65;;;1.90;;
67819;SDS011;54618;52.018;5.576;2023-03-01T06:25:18;3.47;;;2.00;;
67819;SDS011;54618;52.018;5.576;2023-03-01T06:27:45;4.05;;;2.05;;
67819;SDS011;54618;52.018;5.576;2023-03-01T06:30:12;3.35;;;1.98;;
67819;SDS011;54618;52.018;5.576;2023-03-01T06:32:39;3.03;;;2.00;;
67819;SDS011;54618;52.018;5.576;2023-03-01T06:35:07;2.75;;;1.80;;
67819;SDS011;54618;52.018;5.576;2023-03-01T06:37:33;2.75;;;1.80;;
67819;SDS011;54618;52.018;5.576;2023-03-01T06:40:00;3.35;;;1.92;;
67819;SDS011;54618;52.018;5.576;2023-03-01T06:42:31;2.55;;;1.63;;
67819;SDS011;54618;52.018;5.576;2023-03-01T06:44:57;2.67;;;1.75;;
67819;SDS011;54618;52.018;5.576;2023-03-01T06:47:23;2.90;;;1.67;;
67819;SDS011;54618;52.018;5.576;2023-03-01T06:49:48;3.72;;;1.70;;
67819;SDS011;54618;52.018;5.576;2023-03-01T06:52:14;3.03;;;1.63;;
67819;SDS011;54618;52.018;5.576;2023-03-01T06:54:39;3.47;;;1.70;;
67819;SDS011;54618;52.018;5.576;2023-03-01T06:57:04;3.58;;;1.80;;
67819;SDS011;54618;52.018;5.576;2023-03-01T06:59:30;2.63;;;1.65;;
67819;SDS011;54618;52.018;5.576;2023-03-01T07:01:56;3.08;;;1.75;;
67819;SDS011;54618;52.018;5.576;2023-03-01T07:04:21;2.75;;;1.60;;
67819;SDS011;54618;52.018;5.576;2023-03-01T07:06:47;3.45;;;1.90;;
67819;SDS011;54618;52.018;5.576;2023-03-01T07:09:19;3.78;;;1.70;;
67819;SDS011;54618;52.018;5.576;2023-03-01T07:11:46;3.97;;;1.80;;
67819;SDS011;54618;52.018;5.576;2023-03-01T07:14:12;2.47;;;1.50;;
67819;SDS011;54618;52.018;5.576;2023-03-01T07:16:38;2.85;;;1.55;;
67819;SDS011;54618;52.018;5.576;2023-03-01T07:19:03;2.78;;;1.77;;
67819;SDS011;54618;52.018;5.576;2023-03-01T07:21:30;3.42;;;1.88;;
67819;SDS011;54618;52.018;5.576;2023-03-01T07:23:56;2.70;;;1.50;;
67819;SDS011;54618;52.018;5.576;2023-03-01T07:26:22;2.90;;;1.63;;
67819;SDS011;54618;52.018;5.576;2023-03-01T07:28:47;3.15;;;1.92;;
67819;SDS011;54618;52.018;5.576;2023-03-01T07:31:13;2.50;;;1.60;;
67819;SDS011;54618;52.018;5.576;2023-03-01T07:33:39;4.40;;;1.75;;
67819;SDS011;54618;52.018;5.576;2023-03-01T07:36:05;2.70;;;1.60;;
67819;SDS011;54618;52.018;5.576;2023-03-01T07:38:31;3.30;;;1.80;;
67819;SDS011;54618;52.018;5.576;2023-03-01T07:41:00;2.83;;;1.70;;
67819;SDS011;54618;52.018;5.576;2023-03-01T07:43:30;3.15;;;1.58;;
67819;SDS011;54618;52.018;5.576;2023-03-01T07:45:59;3.42;;;1.85;;
67819;SDS011;54618;52.018;5.576;2023-03-01T07:48:26;2.53;;;1.50;;
67819;SDS011;54618;52.018;5.576;2023-03-01T07:50:52;3.00;;;1.85;;
67819;SDS011;54618;52.018;5.576;2023-03-01T07:53:17;3.35;;;1.90;;
67819;SDS011;54618;52.018;5.576;2023-03-01T07:55:43;2.70;;;1.70;;
67819;SDS011;54618;52.018;5.576;2023-03-01T07:58:08;2.75;;;1.75;;
67819;SDS011;54618;52.018;5.576;2023-03-01T08:00:34;3.28;;;1.70;;
67819;SDS011;54618;52.018;5.576;2023-03-01T08:03:00;3.45;;;1.60;;
67819;SDS011;54618;52.018;5.576;2023-03-01T08:05:26;2.95;;;1.70;;
67819;SDS011;54618;52.018;5.576;2023-03-01T08:07:53;2.30;;;1.50;;
67819;SDS011;54618;52.018;5.576;2023-03-01T08:10:19;2.85;;;1.50;;
67819;SDS011;54618;52.018;5.576;2023-03-01T08:12:44;2.60;;;1.60;;
67819;SDS011;54618;52.018;5.576;2023-03-01T08:15:10;2.78;;;1.48;;
67819;SDS011;54618;52.018;5.576;2023-03-01T08:17:36;3.05;;;1.70;;
67819;SDS011;54618;52.018;5.576;2023-03-01T08:20:01;3.33;;;1.50;;
67819;SDS011;54618;52.018;5.576;2023-03-01T08:22:29;2.60;;;1.60;;
67819;SDS011;54618;52.018;5.576;2023-03-01T08:24:55;3.13;;;1.60;;
67819;SDS011;54618;52.018;5.576;2023-03-01T08:27:20;3.42;;;1.60;;
67819;SDS011;54618;52.018;5.576;2023-03-01T08:29:46;3.72;;;1.65;;
67819;SDS011;54618;52.018;5.576;2023-03-01T08:32:12;2.78;;;1.40;;
67819;SDS011;54618;52.018;5.576;2023-03-01T08:34:37;2.72;;;1.50;;
67819;SDS011;54618;52.018;5.576;2023-03-01T08:37:03;2.60;;;1.60;;
67819;SDS011;54618;52.018;5.576;2023-03-01T08:39:29;4.00;;;1.52;;
67819;SDS011;54618;52.018;5.576;2023-03-01T08:41:55;3.70;;;1.60;;
67819;SDS011;54618;52.018;5.576;2023-03-01T08:44:21;3.13;;;1.65;;
67819;SDS011;54618;52.018;5.576;2023-03-01T08:46:47;2.17;;;1.50;;
67819;SDS011;54618;52.018;5.576;2023-03-01T08:49:15;2.67;;;1.73;;
67819;SDS011;54618;52.018;5.576;2023-03-01T08:51:43;2.92;;;1.40;;
67819;SDS011;54618;52.018;5.576;2023-03-01T08:54:10;2.42;;;1.50;;
67819;SDS011;54618;52.018;5.576;2023-03-01T08:56:43;2.55;;;1.60;;
67819;SDS011;54618;52.018;5.576;2023-03-01T08:59:12;2.92;;;1.50;;
67819;SDS011;54618;52.018;5.576;2023-03-01T09:01:39;3.83;;;1.63;;
67819;SDS011;54618;52.018;5.576;2023-03-01T09:04:05;2.30;;;1.40;;
67819;SDS011;54618;52.018;5.576;2023-03-01T09:06:31;3.63;;;1.60;;
67819;SDS011;54618;52.018;5.576;2023-03-01T09:09:00;2.75;;;1.58;;
67819;SDS011;54618;52.018;5.576;2023-03-01T09:11:26;2.53;;;1.50;;
67819;SDS011;54618;52.018;5.576;2023-03-01T09:13:53;2.53;;;1.50;;
67819;SDS011;54618;52.018;5.576;2023-03-01T09:16:19;2.72;;;1.60;;
67819;SDS011;54618;52.018;5.576;2023-03-01T09:18:48;2.50;;;1.50;;
67819;SDS011;54618;52.018;5.576;2023-03-01T09:21:18;4.20;;;1.55;;
67819;SDS011;54618;52.018;5.576;2023-03-01T09:23:46;2.78;;;1.38;;
67819;SDS011;54618;52.018;5.576;2023-03-01T09:26:13;2.95;;;1.40;;
67819;SDS011;54618;52.018;5.576;2023-03-01T09:28:44;4.45;;;1.55;;
67819;SDS011;54618;52.018;5.576;2023-03-01T09:31:11;2.42;;;1.38;;
67819;SDS011;54618;52.018;5.576;2023-03-01T09:33:38;2.67;;;1.65;;
67819;SDS011;54618;52.018;5.576;2023-03-01T09:36:06;5.00;;;1.40;;
67819;SDS011;54618;52.018;5.576;2023-03-01T09:38:37;2.95;;;1.55;;
67819;SDS011;54618;52.018;5.576;2023-03-01T09:41:08;4.97;;;1.60;;
67819;SDS011;54618;52.018;5.576;2023-03-01T09:46:45;3.90;;;1.60;;
67819;SDS011;54618;52.018;5.576;2023-03-01T09:49:15;4.18;;;1.30;;
67819;SDS011;54618;52.018;5.576;2023-03-01T09:54:38;2.85;;;1.30;;
67819;SDS011;54618;52.018;5.576;2023-03-01T10:02:21;3.13;;;1.23;;
67819;SDS011;54618;52.018;5.576;2023-03-01T10:05:40;3.92;;;1.33;;
67819;SDS011;54618;52.018;5.576;2023-03-01T10:10:54;3.17;;;1.40;;
67819;SDS011;54618;52.018;5.576;2023-03-01T10:16:15;4.18;;;1.52;;
67819;SDS011;54618;52.018;5.576;2023-03-01T10:18:46;3.35;;;1.30;;
67819;SDS011;54618;52.018;5.576;2023-03-01T10:21:19;3.28;;;1.40;;
67819;SDS011;54618;52.018;5.576;2023-03-01T10:23:45;2.50;;;1.38;;
67819;SDS011;54618;52.018;5.576;2023-03-01T10:26:33;3.22;;;1.30;;
67819;SDS011;54618;52.018;5.576;2023-03-01T10:29:08;3.15;;;1.20;;
67819;SDS011;54618;52.018;5.576;2023-03-01T10:31:40;3.03;;;1.15;;
67819;SDS011;54618;52.018;5.576;2023-03-01T10:34:16;5.10;;;2.15;;
67819;SDS011;54618;52.018;5.576;2023-03-01T10:36:42;5.53;;;1.70;;
67819;SDS011;54618;52.018;5.576;2023-03-01T10:39:13;6.07;;;1.60;;
67819;SDS011;54618;52.018;5.576;2023-03-01T10:44:36;4.05;;;1.20;;
67819;SDS011;54618;52.018;5.576;2023-03-01T10:47:05;5.75;;;1.38;;
67819;SDS011;54618;52.018;5.576;2023-03-01T10:49:38;2.65;;;1.40;;
67819;SDS011;54618;52.018;5.576;2023-03-01T10:52:19;4.88;;;1.50;;
67819;SDS011;54618;52.018;5.576;2023-03-01T10:54:54;4.07;;;1.33;;
67819;SDS011;54618;52.018;5.576;2023-03-01T10:57:30;2.85;;;1.35;;
67819;SDS011;54618;52.018;5.576;2023-03-01T11:03:33;2.10;;;1.25;;
67819;SDS011;54618;52.018;5.576;2023-03-01T11:05:39;2.97;;;1.40;;
67819;SDS011;54618;52.018;5.576;2023-03-01T11:08:35;3.38;;;1.10;;
67819;SDS011;54618;52.018;5.576;2023-03-01T11:13:51;3.63;;;1.30;;
67819;SDS011;54618;52.018;5.576;2023-03-01T11:16:22;3.35;;;1.20;;
67819;SDS011;54618;52.018;5.576;2023-03-01T11:21:34;2.50;;;1.10;;
67819;SDS011;54618;52.018;5.576;2023-03-01T11:24:08;4.68;;;1.17;;
67819;SDS011;54618;52.018;5.576;2023-03-01T11:26:37;1.77;;;1.20;;
67819;SDS011;54618;52.018;5.576;2023-03-01T11:29:10;1.75;;;1.08;;
67819;SDS011;54618;52.018;5.576;2023-03-01T11:31:51;4.18;;;1.30;;
67819;SDS011;54618;52.018;5.576;2023-03-01T11:34:20;2.78;;;1.10;;
67819;SDS011;54618;52.018;5.576;2023-03-01T11:36:58;2.72;;;1.15;;
67819;SDS011;54618;52.018;5.576;2023-03-01T11:39:32;3.63;;;1.15;;
67819;SDS011;54618;52.018;5.576;2023-03-01T11:42:11;2.20;;;1.00;;
67819;SDS011;54618;52.018;5.576;2023-03-01T11:44:42;2.85;;;1.10;;
67819;SDS011;54618;52.018;5.576;2023-03-01T11:49:58;2.70;;;1.00;;
67819;SDS011;54618;52.018;5.576;2023-03-01T11:55:39;3.72;;;1.10;;
67819;SDS011;54618;52.018;5.576;2023-03-01T11:58:29;2.22;;;1.00;;
67819;SDS011;54618;52.018;5.576;2023-03-01T12:18:13;2.05;;;0.90;;
67819;SDS011;54618;52.018;5.576;2023-03-01T12:26:23;3.13;;;0.93;;
67819;SDS011;54618;52.018;5.576;2023-03-01T12:34:41;2.85;;;1.05;;
67819;SDS011;54618;52.018;5.576;2023-03-01T12:37:25;2.90;;;1.10;;
67819;SDS011;54618;52.018;5.576;2023-03-01T12:51:01;3.38;;;1.50;;
67819;SDS011;54618;52.018;5.576;2023-03-01T12:53:31;1.92;;;1.02;;
67819;SDS011;54618;52.018;5.576;2023-03-01T12:56:02;3.40;;;1.00;;
67819;SDS011;54618;52.018;5.576;2023-03-01T13:01:18;3.67;;;1.10;;
67819;SDS011;54618;52.018;5.576;2023-03-01T13:09:05;3.05;;;1.00;;
67819;SDS011;54618;52.018;5.576;2023-03-01T13:11:49;3.38;;;1.10;;
67819;SDS011;54618;52.018;5.576;2023-03-01T13:16:47;3.78;;;1.10;;
67819;SDS011;54618;52.018;5.576;2023-03-01T13:21:57;3.00;;;1.10;;
67819;SDS011;54618;52.018;5.576;2023-03-01T13:29:46;2.70;;;0.98;;
67819;SDS011;54618;52.018;5.576;2023-03-01T13:32:28;3.50;;;1.10;;
67819;SDS011;54618;52.018;5.576;2023-03-01T13:35:41;2.50;;;0.90;;
67819;SDS011;54618;52.018;5.576;2023-03-01T13:41:03;1.65;;;0.90;;
67819;SDS011;54618;52.018;5.576;2023-03-01T13:43:31;3.03;;;1.10;;
67819;SDS011;54618;52.018;5.576;2023-03-01T13:46:01;3.88;;;0.90;;
67819;SDS011;54618;52.018;5.576;2023-03-01T13:48:33;2.42;;;1.05;;
67819;SDS011;54618;52.018;5.576;2023-03-01T13:51:00;1.92;;;0.98;;
67819;SDS011;54618;52.018;5.576;2023-03-01T13:53:29;1.50;;;0.88;;
67819;SDS011;54618;52.018;5.576;2023-03-01T13:56:01;2.00;;;1.00;;
67819;SDS011;54618;52.018;5.576;2023-03-01T13:58:33;2.92;;;0.90;;
67819;SDS011;54618;52.018;5.576;2023-03-01T14:01:20;1.88;;;0.95;;
67819;SDS011;54618;52.018;5.576;2023-03-01T14:03:58;1.50;;;0.77;;
67819;SDS011;54618;52.018;5.576;2023-03-01T14:06:25;3.40;;;0.93;;
67819;SDS011;54618;52.018;5.576;2023-03-01T14:15:07;2.47;;;0.80;;
67819;SDS011;54618;52.018;5.576;2023-03-01T14:22:47;1.73;;;0.90;;
67819;SDS011;54618;52.018;5.576;2023-03-01T14:28:04;2.83;;;1.02;;
67819;SDS011;54618;52.018;5.576;2023-03-01T14:30:53;1.98;;;0.88;;
67819;SDS011;54618;52.018;5.576;2023-03-01T14:35:51;1.88;;;1.00;;
67819;SDS011;54618;52.018;5.576;2023-03-01T14:41:02;2.37;;;0.90;;
67819;SDS011;54618;52.018;5.576;2023-03-01T14:43:33;1.88;;;0.90;;
67819;SDS011;54618;52.018;5.576;2023-03-01T14:46:00;2.63;;;1.00;;
67819;SDS011;54618;52.018;5.576;2023-03-01T14:48:27;2.42;;;1.00;;
67819;SDS011;54618;52.018;5.576;2023-03-01T14:50:54;2.25;;;1.02;;
67819;SDS011;54618;52.018;5.576;2023-03-01T14:53:27;2.60;;;0.90;;
67819;SDS011;54618;52.018;5.576;2023-03-01T14:56:01;4.32;;;0.90;;
67819;SDS011;54618;52.018;5.576;2023-03-01T14:58:31;2.83;;;0.98;;
67819;SDS011;54618;52.018;5.576;2023-03-01T15:00:59;1.88;;;0.98;;
67819;SDS011;54618;52.018;5.576;2023-03-01T15:03:31;3.00;;;0.90;;
67819;SDS011;54618;52.018;5.576;2023-03-01T15:06:02;2.10;;;1.00;;
67819;SDS011;54618;52.018;5.576;2023-03-01T15:08:30;1.80;;;0.90;;
67819;SDS011;54618;52.018;5.576;2023-03-01T15:13:43;2.80;;;1.00;;
67819;SDS011;54618;52.018;5.576;2023-03-01T15:16:12;1.45;;;0.73;;
67819;SDS011;54618;52.018;5.576;2023-03-01T15:18:47;2.33;;;0.93;;
67819;SDS011;54618;52.018;5.576;2023-03-01T15:21:20;1.35;;;0.80;;
67819;SDS011;54618;52.018;5.576;2023-03-01T15:23:54;1.90;;;0.90;;
67819;SDS011;54618;52.018;5.576;2023-03-01T15:26:30;2.60;;;1.00;;
67819;SDS011;54618;52.018;5.576;2023-03-01T15:28:58;2.35;;;0.90;;
67819;SDS011;54618;52.018;5.576;2023-03-01T15:31:26;3.75;;;0.93;;
67819;SDS011;54618;52.018;5.576;2023-03-01T15:37:35;2.30;;;1.00;;
67819;SDS011;54618;52.018;5.576;2023-03-01T15:40:20;1.50;;;0.77;;
67819;SDS011;54618;52.018;5.576;2023-03-01T15:42:49;1.67;;;0.90;;
67819;SDS011;54618;52.018;5.576;2023-03-01T15:47:46;2.17;;;1.00;;
67819;SDS011;54618;52.018;5.576;2023-03-01T15:50:24;1.63;;;0.80;;
67819;SDS011;54618;52.018;5.576;2023-03-01T15:52:51;2.78;;;0.90;;
67819;SDS011;54618;52.018;5.576;2023-03-01T15:55:19;1.65;;;0.98;;
67819;SDS011;54618;52.018;5.576;2023-03-01T15:57:46;2.90;;;1.10;;
67819;SDS011;54618;52.018;5.576;2023-03-01T16:00:12;1.55;;;0.80;;
67819;SDS011;54618;52.018;5.576;2023-03-01T16:02:39;1.73;;;0.88;;
67819;SDS011;54618;52.018;5.576;2023-03-01T16:05:09;2.85;;;0.90;;
67819;SDS011;54618;52.018;5.576;2023-03-01T16:07:48;1.67;;;0.90;;
67819;SDS011;54618;52.018;5.576;2023-03-01T16:10:14;2.47;;;0.95;;
67819;SDS011;54618;52.018;5.576;2023-03-01T16:12:40;2.42;;;0.88;;
67819;SDS011;54618;52.018;5.576;2023-03-01T16:15:39;2.30;;;0.80;;
67819;SDS011;54618;52.018;5.576;2023-03-01T16:18:01;1.05;;;0.68;;
67819;SDS011;54618;52.018;5.576;2023-03-01T16:20:28;2.20;;;0.90;;
67819;SDS011;54618;52.018;5.576;2023-03-01T16:22:54;1.65;;;0.88;;
67819;SDS011;54618;52.018;5.576;2023-03-01T16:25:23;2.55;;;0.77;;
67819;SDS011;54618;52.018;5.576;2023-03-01T16:27:49;3.15;;;0.90;;
67819;SDS011;54618;52.018;5.576;2023-03-01T16:30:17;1.90;;;0.77;;
67819;SDS011;54618;52.018;5.576;2023-03-01T16:32:45;2.63;;;0.98;;
67819;SDS011;54618;52.018;5.576;2023-03-01T16:35:12;1.92;;;0.80;;
67819;SDS011;54618;52.018;5.576;2023-03-01T16:37:39;2.03;;;0.82;;
67819;SDS011;54618;52.018;5.576;2023-03-01T16:40:06;2.67;;;1.02;;
67819;SDS011;54618;52.018;5.576;2023-03-01T16:42:41;1.80;;;0.90;;
67819;SDS011;54618;52.018;5.576;2023-03-01T16:45:07;2.20;;;0.80;;
67819;SDS011;54618;52.018;5.576;2023-03-01T16:47:33;3.53;;;0.70;;
67819;SDS011;54618;52.018;5.576;2023-03-01T16:49:59;2.53;;;0.85;;
67819;SDS011;54618;52.018;5.576;2023-03-01T16:52:24;2.03;;;1.00;;
67819;SDS011;54618;52.018;5.576;2023-03-01T16:54:50;1.80;;;0.88;;
67819;SDS011;54618;52.018;5.576;2023-03-01T16:57:16;1.58;;;0.77;;
67819;SDS011;54618;52.018;5.576;2023-03-01T16:59:42;3.47;;;0.90;;
67819;SDS011;54618;52.018;5.576;2023-03-01T17:02:11;1.70;;;0.90;;
67819;SDS011;54618;52.018;5.576;2023-03-01T17:04:37;3.45;;;0.95;;
67819;SDS011;54618;52.018;5.576;2023-03-01T17:07:03;2.28;;;0.93;;
67819;SDS011;54618;52.018;5.576;2023-03-01T17:09:30;2.15;;;0.80;;
67819;SDS011;54618;52.018;5.576;2023-03-01T17:11:59;3.28;;;0.90;;
67819;SDS011;54618;52.018;5.576;2023-03-01T17:14:25;2.90;;;0.90;;
67819;SDS011;54618;52.018;5.576;2023-03-01T17:16:50;1.42;;;0.75;;
67819;SDS011;54618;52.018;5.576;2023-03-01T17:19:17;1.30;;;0.80;;
67819;SDS011;54618;52.018;5.576;2023-03-01T17:21:44;2.55;;;0.80;;
67819;SDS011;54618;52.018;5.576;2023-03-01T17:24:10;2.75;;;1.02;;